Terminal Aerodrome Forecast
Issued by NWS Buffalo, NY

Home | Current Version | Previous Version | Text Only | Print | Product List | Glossary On
Versions: 1 2 3 4 5 6 7 8 9 10 11 12 13 14 15 16 17 18 19 20 21 22 23 24 25 26 27 28 29
000
FTUS41 KBUF 011100
TAFROC
TAF
KROC 011120Z 0112/0212 02008KT P6SM -SHSN OVC020
     FM011400 03010KT P6SM OVC035
     FM011800 05011KT P6SM OVC090
     FM012100 06012KT 2SM -SN OVC060
     FM020200 06015G21KT 1SM -SN BLSN OVC025
     FM020600 05018G25KT 1/2SM SN BLSN OVC025=

USA.gov is the U.S. government's official web portal to all federal, state and local government web resources and services.